createdAt,value
2018-06-03T00:00:08.387Z,983.67
2018-06-03T00:01:18.141Z,983.69
2018-06-03T00:02:28.162Z,983.67
2018-06-03T00:03:37.659Z,983.68
2018-06-03T00:04:47.733Z,983.7
2018-06-03T00:05:57.488Z,983.7
2018-06-03T00:07:06.965Z,983.67
2018-06-03T00:08:16.721Z,983.68
2018-06-03T00:09:26.736Z,983.71
2018-06-03T00:10:36.484Z,983.69
2018-06-03T00:11:46.504Z,983.68
2018-06-03T00:12:56.524Z,983.72
2018-06-03T00:14:06.542Z,983.67
2018-06-03T00:15:16.042Z,983.72
2018-06-03T00:16:25.797Z,983.73
2018-06-03T00:17:35.018Z,983.69
2018-06-03T00:18:45.036Z,983.69
2018-06-03T00:19:54.793Z,983.67
2018-06-03T00:21:04.302Z,983.67
2018-06-03T00:22:14.325Z,983.69
2018-06-03T00:23:24.357Z,983.69
2018-06-03T00:24:34.375Z,983.72
2018-06-03T00:25:44.389Z,983.69
2018-06-03T00:26:54.408Z,983.72
2018-06-03T00:28:04.435Z,983.73
2018-06-03T00:29:14.451Z,983.69
2018-06-03T00:30:23.939Z,983.72
2018-06-03T00:31:33.961Z,983.7
2018-06-03T00:32:43.988Z,983.71
2018-06-03T00:33:54.015Z,983.74
2018-06-03T00:35:03.772Z,983.73
2018-06-03T00:36:13.825Z,983.74
2018-06-03T00:37:23.585Z,983.72
2018-06-03T00:38:33.340Z,983.72
2018-06-03T00:39:42.818Z,983.68
2018-06-03T00:40:52.568Z,983.73
2018-06-03T00:42:02.047Z,983.73
2018-06-03T00:43:11.537Z,983.74
2018-06-03T00:44:21.285Z,983.75
2018-06-03T00:45:30.765Z,983.74
2018-06-03T00:46:40.883Z,983.76
2018-06-03T00:47:50.634Z,983.73
2018-06-03T00:48:59.845Z,983.72
2018-06-03T00:50:09.605Z,983.7
2018-06-03T00:51:19.088Z,983.75
2018-06-03T00:52:28.836Z,983.73
2018-06-03T00:53:38.859Z,983.68
2018-06-03T00:54:48.874Z,983.71
2018-06-03T00:55:58.675Z,983.75
2018-06-03T00:57:08.148Z,983.73
2018-06-03T00:58:18.168Z,983.76
2018-06-03T00:59:27.923Z,983.72
2018-06-03T01:00:37.676Z,983.72
2018-06-03T01:01:47.693Z,983.74
2018-06-03T01:02:57.724Z,983.74
2018-06-03T01:04:06.939Z,983.75
2018-06-03T01:05:16.968Z,983.73
2018-06-03T01:06:26.185Z,983.73
2018-06-03T01:07:35.673Z,983.71
2018-06-03T01:08:45.430Z,983.72
2018-06-03T01:09:55.179Z,983.75
2018-06-03T01:11:04.670Z,983.76
2018-06-03T01:12:14.690Z,983.75
2018-06-03T01:13:24.709Z,983.76
2018-06-03T01:14:34.733Z,983.77
2018-06-03T01:15:43.943Z,983.76
2018-06-03T01:16:53.703Z,983.76
2018-06-03T01:18:03.457Z,983.77
2018-06-03T01:19:13.205Z,983.75
2018-06-03T01:20:23.236Z,983.72
2018-06-03T01:21:32.770Z,983.69
2018-06-03T01:22:42.529Z,983.71
2018-06-03T01:23:52.550Z,983.73
2018-06-03T01:25:02.305Z,983.75
2018-06-03T01:26:12.342Z,983.76
2018-06-03T01:27:22.369Z,983.73
2018-06-03T01:28:32.397Z,983.76
2018-06-03T01:29:42.412Z,983.78
2018-06-03T01:30:52.435Z,983.79
2018-06-03T01:32:01.922Z,983.79
2018-06-03T01:33:11.670Z,983.81
2018-06-03T01:34:21.693Z,983.78
2018-06-03T01:35:31.439Z,983.8
2018-06-03T01:36:41.185Z,983.79
2018-06-03T01:37:51.220Z,983.81
2018-06-03T01:39:00.971Z,983.79
2018-06-03T01:40:10.990Z,983.8
2018-06-03T01:41:21.003Z,983.8
2018-06-03T01:42:31.024Z,983.82
2018-06-03T01:43:41.041Z,983.79
2018-06-03T01:44:51.098Z,983.8
2018-06-03T01:46:00.859Z,983.79
2018-06-03T01:47:10.341Z,983.78
2018-06-03T01:48:20.361Z,983.75
2018-06-03T01:49:30.388Z,983.77
2018-06-03T01:50:40.413Z,983.73
2018-06-03T01:51:50.164Z,983.75
2018-06-03T01:53:00.181Z,983.76
2018-06-03T01:54:10.195Z,983.81
2018-06-03T01:55:19.675Z,983.77
2018-06-03T01:56:29.745Z,983.8
2018-06-03T01:57:39.782Z,983.84
2018-06-03T01:58:49.803Z,983.83
2018-06-03T01:59:59.819Z,983.82
2018-06-03T02:01:09.573Z,983.78
2018-06-03T02:02:22.941Z,983.81
2018-06-03T02:03:32.443Z,983.83
2018-06-03T02:04:42.190Z,983.82
2018-06-03T02:05:51.405Z,983.79
2018-06-03T02:07:01.417Z,983.8
2018-06-03T02:08:11.436Z,983.77
2018-06-03T02:09:21.453Z,983.73
2018-06-03T02:10:31.209Z,983.75
2018-06-03T02:11:41.233Z,983.77
2018-06-03T02:12:51.252Z,983.77
2018-06-03T02:14:01.274Z,983.76
2018-06-03T02:15:11.026Z,983.76
2018-06-03T02:16:21.045Z,983.78
2018-06-03T02:17:31.059Z,983.77
2018-06-03T02:18:40.549Z,983.78
2018-06-03T02:19:50.572Z,983.8
2018-06-03T02:21:00.340Z,983.8
2018-06-03T02:22:10.098Z,983.78
2018-06-03T02:23:19.850Z,983.79
2018-06-03T02:24:29.330Z,983.77
2018-06-03T02:25:39.402Z,983.82
2018-06-03T02:26:49.416Z,983.8
2018-06-03T02:27:59.162Z,983.81
2018-06-03T02:29:08.378Z,983.81
2018-06-03T02:30:18.402Z,983.8
2018-06-03T02:31:28.834Z,983.8
2018-06-03T02:32:38.861Z,983.81
2018-06-03T02:33:48.622Z,983.84
2018-06-03T02:34:58.645Z,983.8
2018-06-03T02:36:08.418Z,983.81
2018-06-03T02:37:17.748Z,983.8
2018-06-03T02:38:27.788Z,983.83
2018-06-03T02:39:37.829Z,983.8
2018-06-03T02:40:47.862Z,983.84
2018-06-03T02:41:57.890Z,983.81
2018-06-03T02:43:07.260Z,983.81
2018-06-03T02:44:17.285Z,983.75
2018-06-03T02:45:27.045Z,983.75
2018-06-03T02:46:37.098Z,983.76
2018-06-03T02:47:46.853Z,983.79
2018-06-03T02:48:56.610Z,983.76
2018-06-03T02:50:06.362Z,983.78
2018-06-03T02:51:15.860Z,983.78
2018-06-03T02:52:25.891Z,983.82
2018-06-03T02:53:35.932Z,983.83
2018-06-03T02:54:45.705Z,983.76
2018-06-03T02:55:55.195Z,983.78
2018-06-03T02:57:04.698Z,983.77
2018-06-03T02:58:14.717Z,983.78
2018-06-03T02:59:24.495Z,983.74
2018-06-03T03:04:30.462Z,983.78
2018-06-03T03:05:39.950Z,983.78
2018-06-03T03:06:49.970Z,983.78
2018-06-03T03:08:00.000Z,983.8
2018-06-03T03:09:10.035Z,983.8
2018-06-03T03:10:19.794Z,983.79
2018-06-03T03:11:29.820Z,983.81
2018-06-03T03:12:39.311Z,983.78
2018-06-03T03:13:49.059Z,983.81
2018-06-03T03:14:58.825Z,983.8
2018-06-03T03:16:08.307Z,983.77
2018-06-03T03:17:18.068Z,983.78
2018-06-03T03:18:28.084Z,983.81
2018-06-03T03:19:38.098Z,983.77
2018-06-03T03:20:48.169Z,983.75
2018-06-03T03:21:57.918Z,983.75
2018-06-03T03:23:07.670Z,983.73
2018-06-03T03:24:17.444Z,983.75
2018-06-03T03:25:27.198Z,983.76
2018-06-03T03:26:37.211Z,983.76
2018-06-03T03:27:46.690Z,983.76
2018-06-03T03:28:56.225Z,983.78
2018-06-03T03:30:06.245Z,983.79
2018-06-03T03:31:15.740Z,983.73
2018-06-03T03:32:25.759Z,983.76
2018-06-03T03:33:35.776Z,983.76
2018-06-03T03:34:45.523Z,983.74
2018-06-03T03:35:55.539Z,983.73
2018-06-03T03:37:05.555Z,983.75
2018-06-03T03:38:15.313Z,983.77
2018-06-03T03:39:25.345Z,983.76
2018-06-03T03:40:35.357Z,983.75
2018-06-03T03:41:45.367Z,983.75
2018-06-03T03:42:55.122Z,983.74
2018-06-03T03:44:04.603Z,983.74
2018-06-03T03:45:14.615Z,983.8
2018-06-03T03:46:24.631Z,983.76
2018-06-03T03:47:34.654Z,983.76
2018-06-03T03:48:44.671Z,983.78
2018-06-03T03:49:54.682Z,983.76
2018-06-03T03:51:04.699Z,983.78
2018-06-03T03:52:14.716Z,983.77
2018-06-03T03:53:24.466Z,983.77
2018-06-03T03:54:34.220Z,983.73
2018-06-03T03:55:44.241Z,983.76
2018-06-03T03:56:53.457Z,983.78
2018-06-03T03:58:03.203Z,983.75
2018-06-03T03:59:13.220Z,983.77
2018-06-03T04:00:22.705Z,983.74
2018-06-03T04:01:32.719Z,983.74
2018-06-03T04:02:42.468Z,983.78
2018-06-03T04:03:52.216Z,983.75
2018-06-03T04:05:01.966Z,983.76
2018-06-03T04:06:11.985Z,983.79
2018-06-03T04:07:22.111Z,983.77
2018-06-03T04:08:32.130Z,983.77
2018-06-03T04:09:42.156Z,983.78
2018-06-03T04:10:52.168Z,983.79
2018-06-03T04:12:02.185Z,983.77
2018-06-03T04:13:11.734Z,983.76
2018-06-03T04:14:21.654Z,983.76
2018-06-03T04:15:30.877Z,983.79
2018-06-03T04:16:40.889Z,983.82
2018-06-03T04:17:50.380Z,983.77
2018-06-03T04:19:00.133Z,983.78
2018-06-03T04:20:09.886Z,983.75
2018-06-03T04:21:19.907Z,983.78
2018-06-03T04:22:29.386Z,983.78
2018-06-03T04:23:39.138Z,983.82
2018-06-03T04:24:49.156Z,983.83
2018-06-03T04:25:59.170Z,983.82
2018-06-03T04:27:09.199Z,983.84
2018-06-03T04:28:19.209Z,983.79
2018-06-03T04:29:29.272Z,983.78
2018-06-03T04:30:38.753Z,983.75
2018-06-03T04:31:48.767Z,983.75
2018-06-03T04:32:58.522Z,983.79
2018-06-03T04:34:08.544Z,983.75
2018-06-03T04:35:18.561Z,983.7
2018-06-03T04:36:28.628Z,983.74
2018-06-03T04:37:38.375Z,983.72
2018-06-03T04:38:48.394Z,983.71
2018-06-03T04:39:58.408Z,983.76
2018-06-03T04:41:08.160Z,983.75
2018-06-03T04:42:17.430Z,983.7
2018-06-03T04:43:27.449Z,983.72
2018-06-03T04:44:36.932Z,983.71
2018-06-03T04:45:46.947Z,983.72
2018-06-03T04:46:56.961Z,983.71
2018-06-03T04:48:06.987Z,983.71
2018-06-03T04:49:16.741Z,983.66
2018-06-03T04:50:25.952Z,983.66
2018-06-03T04:51:35.704Z,983.7
2018-06-03T04:52:45.460Z,983.68
2018-06-03T04:53:55.210Z,983.64
2018-06-03T04:55:05.015Z,983.66
2018-06-03T04:56:14.842Z,983.68
2018-06-03T04:57:24.863Z,983.71
2018-06-03T04:58:34.345Z,983.69
2018-06-03T04:59:44.361Z,983.68
2018-06-03T05:00:53.838Z,983.7
2018-06-03T05:02:03.587Z,983.66
2018-06-03T05:03:13.333Z,983.67
2018-06-03T05:04:22.814Z,983.66
2018-06-03T05:05:32.564Z,983.69
2018-06-03T05:06:42.584Z,983.74
2018-06-03T05:07:52.603Z,983.73
2018-06-03T05:09:02.361Z,983.74
2018-06-03T05:10:12.373Z,983.72
2018-06-03T05:11:22.385Z,983.7
2018-06-03T05:12:32.407Z,983.73
2018-06-03T05:13:42.155Z,983.72
2018-06-03T05:14:51.641Z,983.75
2018-06-03T05:16:01.389Z,983.72
2018-06-03T05:17:11.146Z,983.71
2018-06-03T05:18:21.160Z,983.75
2018-06-03T05:19:31.209Z,983.72
2018-06-03T05:20:40.956Z,983.72
2018-06-03T05:21:50.970Z,983.68
2018-06-03T05:23:00.461Z,983.72
2018-06-03T05:24:09.937Z,983.7
2018-06-03T05:25:19.680Z,983.7
2018-06-03T05:26:29.697Z,983.68
2018-06-03T05:27:39.716Z,983.7
2018-06-03T05:28:49.738Z,983.69
2018-06-03T05:29:59.221Z,983.72
2018-06-03T05:31:09.240Z,983.72
2018-06-03T05:32:18.992Z,983.68
2018-06-03T05:33:28.207Z,983.68
2018-06-03T05:34:38.221Z,983.67
2018-06-03T05:35:48.233Z,983.66
2018-06-03T05:36:57.984Z,983.69
2018-06-03T05:38:07.192Z,983.62
2018-06-03T05:39:16.945Z,983.65
2018-06-03T05:40:26.972Z,983.65
2018-06-03T05:41:37.001Z,983.67
2018-06-03T05:42:47.017Z,983.69
2018-06-03T05:43:56.499Z,983.67
2018-06-03T05:45:06.514Z,983.65
2018-06-03T05:46:16.264Z,983.67
2018-06-03T05:47:26.283Z,983.63
2018-06-03T05:48:36.296Z,983.58
2018-06-03T05:49:46.042Z,983.6
2018-06-03T05:50:55.522Z,983.63
2018-06-03T05:52:05.530Z,983.61
2018-06-03T05:53:15.010Z,983.56
2018-06-03T05:54:24.764Z,983.56
2018-06-03T05:55:34.787Z,983.58
2018-06-03T05:56:44.870Z,983.59
2018-06-03T05:57:54.888Z,983.61
2018-06-03T05:59:04.907Z,983.57
2018-06-03T06:00:14.653Z,983.58
2018-06-03T06:01:24.408Z,983.55
2018-06-03T06:02:34.158Z,983.58
2018-06-03T06:03:43.637Z,983.55
2018-06-03T06:04:53.659Z,983.58
2018-06-03T06:06:02.605Z,983.56
2018-06-03T06:07:11.819Z,983.59
2018-06-03T06:08:21.845Z,983.6
2018-06-03T06:09:31.592Z,983.57
2018-06-03T06:10:41.333Z,983.58
2018-06-03T06:11:51.353Z,983.61
2018-06-03T06:13:01.101Z,983.58
2018-06-03T06:14:10.589Z,983.63
2018-06-03T06:15:20.650Z,983.58
2018-06-03T06:16:30.129Z,983.64
2018-06-03T06:17:40.142Z,983.6
2018-06-03T06:18:49.886Z,983.61
2018-06-03T06:19:59.630Z,983.62
2018-06-03T06:21:09.530Z,983.66
2018-06-03T06:22:19.276Z,983.66
2018-06-03T06:23:29.298Z,983.69
2018-06-03T06:24:39.312Z,983.66
2018-06-03T06:25:49.067Z,983.67
2018-06-03T06:26:59.080Z,983.61
2018-06-03T06:28:08.829Z,983.65
2018-06-03T06:29:20.086Z,983.65
2018-06-03T06:30:29.666Z,983.62
2018-06-03T06:31:39.688Z,983.65
2018-06-03T06:32:49.174Z,983.64
2018-06-03T06:33:58.928Z,983.67
2018-06-03T06:35:08.411Z,983.65
2018-06-03T06:36:18.474Z,983.68
2018-06-03T06:37:28.660Z,983.69
2018-06-03T06:38:38.792Z,983.64
2018-06-03T06:39:48.543Z,983.64
2018-06-03T06:40:58.571Z,983.65
2018-06-03T06:42:08.061Z,983.67
2018-06-03T06:43:18.081Z,983.63
2018-06-03T06:44:27.828Z,983.62
2018-06-03T06:45:37.847Z,983.64
2018-06-03T06:46:47.603Z,983.6
2018-06-03T06:47:57.625Z,983.6
2018-06-03T06:49:07.382Z,983.62
2018-06-03T06:50:17.133Z,983.6
2018-06-03T06:51:27.158Z,983.58
2018-06-03T06:52:36.910Z,983.57
2018-06-03T06:53:46.931Z,983.61
2018-06-03T06:54:56.430Z,983.56
2018-06-03T06:56:06.216Z,983.6
2018-06-03T06:57:16.298Z,983.6
2018-06-03T06:58:26.143Z,983.59
2018-06-03T06:59:35.898Z,983.53
2018-06-03T07:00:45.918Z,983.57
2018-06-03T07:01:55.668Z,983.55
2018-06-03T07:03:05.150Z,983.54
2018-06-03T07:04:14.633Z,983.52
2018-06-03T07:05:24.668Z,983.51
2018-06-03T07:06:34.693Z,983.51
2018-06-03T07:07:44.407Z,983.52
2018-06-03T07:08:53.630Z,983.48
2018-06-03T07:10:03.382Z,983.51
2018-06-03T07:11:12.862Z,983.5
2018-06-03T07:12:22.349Z,983.45
2018-06-03T07:13:32.103Z,983.46
2018-06-03T07:14:41.865Z,983.43
2018-06-03T07:15:51.623Z,983.45
2018-06-03T07:17:01.388Z,983.44
2018-06-03T07:18:11.145Z,983.45
2018-06-03T07:19:21.163Z,983.44
2018-06-03T07:20:31.185Z,983.45
2018-06-03T07:21:40.944Z,983.4
2018-06-03T07:22:50.697Z,983.4
2018-06-03T07:24:00.458Z,983.37
2018-06-03T07:25:10.483Z,983.36
2018-06-03T07:26:19.967Z,983.37
2018-06-03T07:27:29.990Z,983.38
2018-06-03T07:28:39.486Z,983.35
2018-06-03T07:29:49.262Z,983.34
2018-06-03T07:30:59.014Z,983.33
2018-06-03T07:32:08.237Z,983.32
2018-06-03T07:33:18.117Z,983.32
2018-06-03T07:34:28.156Z,983.31
2018-06-03T07:35:38.194Z,983.3
2018-06-03T07:36:48.217Z,983.3
2018-06-03T07:37:58.235Z,983.31
2018-06-03T07:39:08.248Z,983.29
2018-06-03T07:40:18.276Z,983.27
2018-06-03T07:41:27.759Z,983.26
2018-06-03T07:42:37.241Z,983.26
2018-06-03T07:43:47.267Z,983.25
2018-06-03T07:44:57.029Z,983.24
2018-06-03T07:46:06.778Z,983.27
2018-06-03T07:47:16.264Z,983.22
2018-06-03T07:48:26.284Z,983.25
2018-06-03T07:49:36.303Z,983.21
2018-06-03T07:50:46.050Z,983.21
2018-06-03T07:51:55.808Z,983.26
2018-06-03T07:53:05.300Z,983.25
2018-06-03T07:54:15.322Z,983.2
2018-06-03T07:55:25.338Z,983.21
2018-06-03T07:56:35.091Z,983.22
2018-06-03T07:57:45.113Z,983.19
2018-06-03T07:58:54.867Z,983.18
2018-06-03T08:00:04.618Z,983.16
2018-06-03T08:01:14.400Z,983.11
2018-06-03T08:02:24.465Z,983.16
2018-06-03T08:03:34.495Z,983.1
2018-06-03T08:04:44.515Z,983.12
2018-06-03T08:05:54.313Z,983.1
2018-06-03T08:07:04.322Z,983.11
2018-06-03T08:08:14.346Z,983.06
2018-06-03T08:09:24.101Z,983.07
2018-06-03T08:10:33.866Z,983.1
2018-06-03T08:11:43.881Z,983.13
2018-06-03T08:12:53.913Z,983.1
2018-06-03T08:14:03.938Z,983.07
2018-06-03T08:15:13.966Z,983.05
2018-06-03T08:16:23.723Z,983.05
2018-06-03T08:17:33.519Z,983.02
2018-06-03T08:18:43.280Z,982.95
2018-06-03T08:19:53.029Z,983.03
2018-06-03T08:21:02.782Z,982.95
2018-06-03T08:22:12.826Z,982.99
2018-06-03T08:23:22.589Z,982.98
2018-06-03T08:24:32.616Z,982.99
2018-06-03T08:25:42.644Z,983
2018-06-03T08:26:52.662Z,982.97
2018-06-03T08:28:02.683Z,982.99
2018-06-03T08:29:12.174Z,982.99
2018-06-03T08:30:21.927Z,982.98
2018-06-03T08:31:31.416Z,982.95
2018-06-03T08:32:41.174Z,982.92
2018-06-03T08:33:51.198Z,982.95
2018-06-03T08:35:00.948Z,982.9
2018-06-03T08:36:10.701Z,982.91
2018-06-03T08:37:20.725Z,982.88
2018-06-03T08:38:30.743Z,982.88
2018-06-03T08:39:40.764Z,982.86
2018-06-03T08:40:50.513Z,982.89
2018-06-03T08:42:00.007Z,982.88
2018-06-03T08:43:09.501Z,982.88
2018-06-03T08:44:19.528Z,982.87
2018-06-03T08:45:29.020Z,982.87
2018-06-03T08:46:38.509Z,982.87
2018-06-03T08:47:48.257Z,982.87
2018-06-03T08:48:58.331Z,982.87
2018-06-03T08:50:08.094Z,982.84
2018-06-03T08:51:17.844Z,982.82
2018-06-03T08:52:27.336Z,982.8
2018-06-03T08:53:37.095Z,982.78
2018-06-03T08:54:47.115Z,982.74
2018-06-03T08:55:56.872Z,982.77
2018-06-03T08:57:06.895Z,982.75
2018-06-03T08:58:16.380Z,982.73
2018-06-03T08:59:26.406Z,982.67
2018-06-03T09:00:36.444Z,982.7
2018-06-03T09:01:45.930Z,982.69
2018-06-03T09:02:55.950Z,982.71
2018-06-03T09:04:05.698Z,982.67
2018-06-03T09:05:15.450Z,982.66
2018-06-03T09:06:25.218Z,982.69
2018-06-03T09:07:35.276Z,982.66
2018-06-03T09:08:45.033Z,982.68
2018-06-03T09:09:54.618Z,982.68
2018-06-03T09:11:04.375Z,982.69
2018-06-03T09:12:14.128Z,982.69
2018-06-03T09:13:23.884Z,982.64
2018-06-03T09:14:33.373Z,982.63
2018-06-03T09:15:43.128Z,982.63
2018-06-03T09:16:52.635Z,982.62
2018-06-03T09:18:02.129Z,982.55
2018-06-03T09:19:11.612Z,982.55
2018-06-03T09:20:21.655Z,982.56
2018-06-03T09:21:31.679Z,982.56
2018-06-03T09:22:41.711Z,982.53
2018-06-03T09:23:51.471Z,982.55
2018-06-03T09:25:01.528Z,982.52
2018-06-03T09:26:11.491Z,982.53
2018-06-03T09:27:21.243Z,982.5
2018-06-03T09:28:31.273Z,982.53
2018-06-03T09:29:41.032Z,982.48
2018-06-03T09:30:51.052Z,982.5
2018-06-03T09:32:00.807Z,982.52
2018-06-03T09:33:10.029Z,982.54
2018-06-03T09:34:19.516Z,982.49
2018-06-03T09:35:29.555Z,982.48
2018-06-03T09:36:39.308Z,982.42
2018-06-03T09:37:49.338Z,982.44
2018-06-03T09:38:59.104Z,982.44
2018-06-03T09:40:08.593Z,982.45
2018-06-03T09:41:18.616Z,982.37
2018-06-03T09:42:28.395Z,982.36
2018-06-03T09:43:38.152Z,982.36
2018-06-03T09:44:47.637Z,982.37
2018-06-03T09:45:57.665Z,982.34
2018-06-03T09:47:07.419Z,982.34
2018-06-03T09:48:16.906Z,982.34
2018-06-03T09:49:26.663Z,982.37
2018-06-03T09:50:36.157Z,982.33
2018-06-03T09:51:45.910Z,982.32
2018-06-03T09:52:55.665Z,982.34
2018-06-03T09:54:05.229Z,982.35
2018-06-03T09:55:15.255Z,982.34
2018-06-03T09:56:24.746Z,982.32
2018-06-03T09:57:34.499Z,982.34
2018-06-03T09:58:44.515Z,982.36
2018-06-03T09:59:53.736Z,982.34
2018-06-03T10:01:03.493Z,982.33
2018-06-03T10:02:13.047Z,982.31
2018-06-03T10:03:22.802Z,982.26
2018-06-03T10:04:32.827Z,982.27
2018-06-03T10:05:42.319Z,982.26
2018-06-03T10:06:52.341Z,982.21
2018-06-03T10:08:01.615Z,982.22
2018-06-03T10:09:11.375Z,982.18
2018-06-03T10:10:21.396Z,982.17
2018-06-03T10:11:31.424Z,982.17
2018-06-03T10:12:40.646Z,982.15
2018-06-03T10:13:50.667Z,982.15
2018-06-03T10:15:00.689Z,982.14
2018-06-03T10:16:10.755Z,982.13
2018-06-03T10:17:21.059Z,982.11
2018-06-03T10:18:31.091Z,982.07
2018-06-03T10:19:41.114Z,982.09
2018-06-03T10:20:50.869Z,982.04
2018-06-03T10:22:00.891Z,982.04
2018-06-03T10:23:10.648Z,982.04
2018-06-03T10:24:20.672Z,982.01
2018-06-03T10:25:30.694Z,982.03
2018-06-03T10:26:40.448Z,981.99
2018-06-03T10:27:50.202Z,981.97
2018-06-03T10:28:59.955Z,981.97
2018-06-03T10:30:09.444Z,981.98
2018-06-03T10:31:19.211Z,981.97
2018-06-03T10:32:29.239Z,981.91
2018-06-03T10:33:38.749Z,981.89
2018-06-03T10:34:48.416Z,981.91
2018-06-03T10:35:58.433Z,981.88
2018-06-03T10:37:08.203Z,981.84
2018-06-03T10:38:17.955Z,981.8
2018-06-03T10:39:27.715Z,981.79
2018-06-03T10:40:37.485Z,981.78
2018-06-03T10:41:47.243Z,981.76
2018-06-03T10:42:57.272Z,981.74
2018-06-03T10:44:07.031Z,981.75
2018-06-03T10:45:16.253Z,981.75
2018-06-03T10:46:26.280Z,981.73
2018-06-03T10:47:36.035Z,981.72
2018-06-03T10:48:46.068Z,981.71
2018-06-03T10:49:55.829Z,981.65
2018-06-03T10:51:05.583Z,981.66
2018-06-03T10:52:15.336Z,981.6
2018-06-03T10:53:25.395Z,981.63
2018-06-03T10:54:35.522Z,981.59
2018-06-03T10:55:45.286Z,981.58
2018-06-03T10:56:55.317Z,981.6
2018-06-03T10:58:05.069Z,981.59
2018-06-03T10:59:15.093Z,981.57
2018-06-03T11:00:25.123Z,981.54
2018-06-03T11:01:34.610Z,981.53
2018-06-03T11:02:44.633Z,981.54
2018-06-03T11:03:54.437Z,981.52
2018-06-03T11:05:03.932Z,981.56
2018-06-03T11:06:13.694Z,981.51
2018-06-03T11:07:23.454Z,981.53
2018-06-03T11:08:33.213Z,981.49
2018-06-03T11:09:43.238Z,981.53
2018-06-03T11:10:53.266Z,981.47
2018-06-03T11:12:02.754Z,981.46
2018-06-03T11:13:12.789Z,981.45
2018-06-03T11:14:22.817Z,981.45
2018-06-03T11:15:32.855Z,981.44
2018-06-03T11:16:42.879Z,981.44
2018-06-03T11:17:52.693Z,981.46
2018-06-03T11:19:02.486Z,981.41
2018-06-03T11:20:12.247Z,981.42
2018-06-03T11:21:22.273Z,981.4
2018-06-03T11:22:32.297Z,981.39
2018-06-03T11:23:42.428Z,981.4
2018-06-03T11:24:52.187Z,981.37
2018-06-03T11:26:01.942Z,981.33
2018-06-03T11:27:11.433Z,981.31
2018-06-03T11:28:21.461Z,981.3
2018-06-03T11:29:31.222Z,981.3
2018-06-03T11:30:41.246Z,981.3
2018-06-03T11:31:51.270Z,981.32
2018-06-03T11:33:01.027Z,981.29
2018-06-03T11:34:11.079Z,981.31
2018-06-03T11:35:21.103Z,981.29
2018-06-03T11:36:30.864Z,981.35
2018-06-03T11:37:40.359Z,981.41
2018-06-03T11:38:49.585Z,981.39
2018-06-03T11:39:59.608Z,981.4
2018-06-03T11:41:09.385Z,981.33
2018-06-03T11:42:19.152Z,981.3
2018-06-03T11:43:29.186Z,981.31
2018-06-03T11:44:39.207Z,981.29
2018-06-03T11:45:48.703Z,981.24
2018-06-03T11:46:58.738Z,981.21
2018-06-03T11:48:08.553Z,981.12
2018-06-03T11:49:18.047Z,981.09
2018-06-03T11:50:28.075Z,981.09
2018-06-03T11:51:38.198Z,981.15
2018-06-03T11:52:47.705Z,981.14
2018-06-03T11:53:57.739Z,981
2018-06-03T11:55:07.509Z,981.01
2018-06-03T11:56:17.547Z,981.01
2018-06-03T11:57:27.349Z,980.96
2018-06-03T11:58:37.117Z,980.95
2018-06-03T11:59:47.159Z,980.86
2018-06-03T12:00:56.934Z,980.87
2018-06-03T12:02:06.701Z,980.8
2018-06-03T12:03:16.475Z,980.81
2018-06-03T12:04:26.511Z,980.82
2018-06-03T12:05:36.277Z,980.85
2018-06-03T12:06:46.314Z,980.81
2018-06-03T12:07:55.542Z,980.81
2018-06-03T12:09:04.775Z,980.76
2018-06-03T12:10:14.808Z,980.76
2018-06-03T12:11:24.587Z,980.77
2018-06-03T12:12:34.358Z,980.72
2018-06-03T12:13:44.130Z,980.74
2018-06-03T12:14:54.173Z,980.64
2018-06-03T12:16:03.679Z,980.62
2018-06-03T12:17:13.723Z,980.65
2018-06-03T12:18:22.953Z,980.62
2018-06-03T12:19:32.990Z,980.59
2018-06-03T12:20:42.763Z,980.56
2018-06-03T12:21:52.849Z,980.59
2018-06-03T12:23:02.361Z,980.62
2018-06-03T12:24:12.130Z,980.68
2018-06-03T12:25:21.368Z,980.62
2018-06-03T12:26:31.412Z,980.6
2018-06-03T12:27:41.011Z,980.59
2018-06-03T12:28:50.788Z,980.57
2018-06-03T12:30:00.553Z,980.56
2018-06-03T12:31:10.081Z,980.5
2018-06-03T12:32:20.122Z,980.53
2018-06-03T12:33:30.164Z,980.5
2018-06-03T12:34:40.207Z,980.5
2018-06-03T12:35:49.712Z,980.49
2018-06-03T12:36:59.515Z,980.45
2018-06-03T12:38:08.752Z,980.48
2018-06-03T12:39:18.790Z,980.4
2018-06-03T12:40:28.872Z,980.37
2018-06-03T12:41:38.640Z,980.43
2018-06-03T12:42:48.772Z,980.34
2018-06-03T12:43:58.006Z,980.33
2018-06-03T12:45:08.040Z,980.37
2018-06-03T12:46:18.082Z,980.33
2018-06-03T12:47:27.849Z,980.15
2018-06-03T12:48:37.353Z,980.29
2018-06-03T12:49:47.398Z,980.37
2018-06-03T12:50:57.449Z,980.41
2018-06-03T12:52:06.941Z,980.35
2018-06-03T12:53:16.445Z,980.4
2018-06-03T12:54:26.482Z,980.39
2018-06-03T12:55:36.248Z,980.29
2018-06-03T12:56:46.283Z,980.25
2018-06-03T12:57:56.068Z,980.26
2018-06-03T12:59:06.120Z,980.33
2018-06-03T13:00:16.155Z,980.28
2018-06-03T13:01:25.923Z,980.24
2018-06-03T13:02:35.424Z,980.2
2018-06-03T13:03:45.453Z,980.2
2018-06-03T13:04:55.496Z,980.19
2018-06-03T13:06:04.732Z,980.28
2018-06-03T13:07:14.523Z,979.84
2018-06-03T13:08:24.027Z,979.85
2018-06-03T13:09:34.070Z,980.33
2018-06-03T13:10:43.843Z,980.33
2018-06-03T13:11:53.916Z,980.34
2018-06-03T13:13:03.884Z,980
2018-06-03T13:14:13.949Z,980
2018-06-03T13:15:23.990Z,980
2018-06-03T13:16:34.028Z,980.12
2018-06-03T13:17:43.526Z,980
2018-06-03T13:18:53.025Z,979.87
2018-06-03T13:20:03.104Z,979.89
2018-06-03T13:21:12.875Z,979.93
2018-06-03T13:22:22.947Z,979.98
2018-06-03T13:23:32.982Z,980.63
2018-06-03T13:24:43.014Z,980.39
2018-06-03T13:25:53.048Z,979.92
2018-06-03T13:27:03.076Z,980.33
2018-06-03T13:28:13.100Z,980.07
2018-06-03T13:29:23.136Z,980.14
2018-06-03T13:30:33.206Z,980.51
2018-06-03T13:31:43.235Z,980.56
2018-06-03T13:32:53.016Z,980.52
2018-06-03T13:34:03.055Z,980.38
2018-06-03T13:35:13.097Z,980.47
2018-06-03T13:36:23.125Z,980.42
2018-06-03T13:37:33.208Z,979.95
2018-06-03T13:38:43.048Z,980.31
2018-06-03T13:39:52.818Z,980.11
2018-06-03T13:41:02.866Z,979.75
2018-06-03T13:42:12.365Z,980.41
2018-06-03T13:43:22.399Z,980.35
2018-06-03T13:44:32.436Z,980.36
2018-06-03T13:45:42.471Z,980.28
2018-06-03T13:46:52.503Z,980.24
2018-06-03T13:48:01.734Z,980.19
2018-06-03T13:49:11.496Z,980.16
2018-06-03T13:50:21.007Z,979.98
2018-06-03T13:51:31.151Z,980.21
2018-06-03T13:52:40.951Z,980.22
2018-06-03T13:53:50.727Z,980.19
2018-06-03T13:55:00.765Z,980.14
2018-06-03T13:56:09.731Z,979.46
2018-06-03T13:57:19.499Z,979.54
2018-06-03T13:58:29.272Z,979.48
2018-06-03T13:59:39.312Z,979.54
2018-06-03T14:00:49.347Z,980.36
2018-06-03T14:01:59.226Z,980.39
2018-06-03T14:03:09.013Z,980.28
2018-06-03T14:04:19.043Z,980.12
2018-06-03T14:05:28.542Z,979.41
2018-06-03T14:06:38.312Z,979.46
2018-06-03T14:07:47.811Z,979.57
2018-06-03T14:08:57.851Z,979.66
2018-06-03T14:10:07.618Z,979.72
2018-06-03T14:11:17.117Z,980.29
2018-06-03T14:12:27.157Z,979.47
2018-06-03T14:13:36.921Z,979.41
2018-06-03T14:14:46.680Z,979.41
2018-06-03T14:15:56.735Z,979.46
2018-06-03T14:17:06.505Z,979.5
2018-06-03T14:18:15.470Z,979.78
2018-06-03T14:19:25.516Z,979.48
2018-06-03T14:20:35.505Z,979.43
2018-06-03T14:21:45.270Z,979.38
2018-06-03T14:22:54.500Z,979.51
2018-06-03T14:24:04.004Z,979.86
2018-06-03T14:25:13.773Z,979.36
2018-06-03T14:26:23.974Z,979.32
2018-06-03T14:27:34.019Z,979.3
2018-06-03T14:28:44.047Z,979.28
2018-06-03T14:29:54.079Z,979.27
2018-06-03T14:31:03.839Z,979.52
2018-06-03T14:32:13.329Z,979.28
2018-06-03T14:33:23.098Z,979.31
2018-06-03T14:34:33.124Z,979.31
2018-06-03T14:35:42.914Z,979.34
2018-06-03T14:36:52.407Z,979.37
2018-06-03T14:38:02.176Z,980.79